Time;durP1;ratioP1;P1;durP2;ratioP2;P2;SDS_P1;SDS_P2;PMS_P1;PMS_P2;Temp;Humidity;BMP_temperature;BMP_pressure;BME280_temperature;BME280_humidity;BME280_pressure;Samples;Min_cycle;Max_cycle;Signal;HPM_P1;HPM_P2
2023/08/13 00:00:47;;;;;;;11.15;9.95;;;;;;;26.03;100.00;96496.69;5067380;28;20078;-80
2023/08/13 00:03:13;;;;;;;14.80;9.05;;;;;;;25.90;100.00;96497.06;5072719;28;20367;-80
2023/08/13 00:05:38;;;;;;;10.30;8.82;;;;;;;25.89;100.00;96508.06;5066913;28;20032;-80
2023/08/13 00:08:04;;;;;;;11.02;9.45;;;;;;;25.90;100.00;96497.06;5053296;28;20524;-81
2023/08/13 00:10:30;;;;;;;9.93;8.82;;;;;;;26.01;100.00;96501.50;5073477;28;20020;-81
2023/08/13 00:12:56;;;;;;;8.70;7.80;;;;;;;26.00;100.00;96505.28;5060747;28;20471;-81
2023/08/13 00:15:21;;;;;;;9.50;7.63;;;;;;;25.82;100.00;96506.41;5073136;28;20094;-81
2023/08/13 00:17:47;;;;;;;9.48;7.80;;;;;;;25.72;100.00;96506.25;5055763;28;20414;-80
2023/08/13 00:20:13;;;;;;;9.15;8.00;;;;;;;25.90;100.00;96494.38;5056057;28;20390;-80
2023/08/13 00:22:39;;;;;;;9.07;7.38;;;;;;;26.01;100.00;96504.19;5061196;28;20027;-80
2023/08/13 00:25:18;;;;;;;9.90;7.60;;;;;;;25.77;100.00;96497.41;5052641;28;20024;-81
2023/08/13 00:27:44;;;;;;;9.05;7.03;;;;;;;25.89;100.00;96498.13;5065770;28;20029;-81
2023/08/13 00:30:10;;;;;;;8.45;6.75;;;;;;;25.64;100.00;96496.69;5055111;28;20093;-80
2023/08/13 00:32:35;;;;;;;9.88;7.10;;;;;;;25.52;100.00;96500.53;5049608;28;20029;-81
2023/08/13 00:35:01;;;;;;;8.60;6.78;;;;;;;25.44;100.00;96492.91;5044274;28;20162;-80
2023/08/13 00:37:27;;;;;;;8.35;6.85;;;;;;;25.50;100.00;96500.81;5072276;28;20028;-80
2023/08/13 00:39:52;;;;;;;8.95;7.18;;;;;;;25.57;100.00;96504.13;5053274;28;20029;-81
2023/08/13 00:42:18;;;;;;;9.15;7.38;;;;;;;25.57;100.00;96498.75;5072449;28;20498;-80
2023/08/13 00:44:43;;;;;;;8.70;7.25;;;;;;;25.41;100.00;96496.88;5052555;28;20706;-80
2023/08/13 00:47:09;;;;;;;9.27;7.07;;;;;;;25.57;100.00;96512.22;5070963;28;20044;-80
2023/08/13 00:49:53;;;;;;;9.48;6.97;;;;;;;25.74;100.00;96509.47;5055550;28;20012;-81
2023/08/13 00:52:19;;;;;;;9.73;7.50;;;;;;;25.85;100.00;96510.47;5071882;28;20048;-81
2023/08/13 00:54:45;;;;;;;9.02;7.90;;;;;;;25.70;100.00;96512.94;5072544;28;20046;-81
2023/08/13 00:57:11;;;;;;;9.20;7.38;;;;;;;25.90;100.00;96507.84;5063867;28;20024;-81
2023/08/13 00:59:38;;;;;;;10.48;8.88;;;;;;;25.63;100.00;96503.16;5058639;28;20044;-80
2023/08/13 01:02:03;;;;;;;12.57;8.55;;;;;;;25.79;100.00;96500.66;5064064;28;20035;-81
2023/08/13 01:04:29;;;;;;;10.20;9.10;;;;;;;25.79;100.00;96500.66;5053723;28;20020;-81
2023/08/13 01:07:18;;;;;;;9.60;8.68;;;;;;;25.98;100.00;96510.09;5051370;28;20474;-81
2023/08/13 01:10:02;;;;;;;9.05;8.15;;;;;;;25.92;100.00;96508.38;5045473;28;20493;-80
2023/08/13 01:12:35;;;;;;;9.90;8.43;;;;;;;25.97;100.00;96504.97;5059647;28;20081;-80
2023/08/13 01:15:26;;;;;;;9.63;8.25;;;;;;;25.62;100.00;96506.09;5055006;28;20024;-81
2023/08/13 01:17:54;;;;;;;9.02;8.10;;;;;;;25.72;100.00;96503.53;5063472;28;20032;-81
2023/08/13 01:20:28;;;;;;;8.88;7.82;;;;;;;25.70;100.00;96502.16;5053514;28;20028;-80
2023/08/13 01:22:54;;;;;;;31.65;28.50;;;;;;;25.84;100.00;96498.06;5051248;28;20024;-81
2023/08/13 01:25:23;;;;;;;21.65;19.40;;;;;;;25.91;100.00;96503.25;5054147;28;20042;-80
2023/08/13 01:28:20;;;;;;;12.77;11.40;;;;;;;25.77;100.00;96498.22;5054967;28;20025;-80
2023/08/13 01:30:52;;;;;;;9.40;7.35;;;;;;;25.74;100.00;96498.69;5045597;28;20482;-80
2023/08/13 01:33:28;;;;;;;9.77;6.88;;;;;;;25.44;100.00;96507.16;5046273;28;20544;-81
2023/08/13 01:35:57;;;;;;;10.40;7.03;;;;;;;25.34;100.00;96507.03;5069880;28;20509;-81
2023/08/13 01:38:24;;;;;;;11.80;6.88;;;;;;;25.31;100.00;96499.44;5054508;28;20459;-80
2023/08/13 01:40:50;;;;;;;10.70;7.63;;;;;;;25.09;100.00;96508.22;5054507;28;20364;-81
2023/08/13 01:43:16;;;;;;;10.73;6.47;;;;;;;24.83;100.00;96503.47;5051076;28;20029;-81
2023/08/13 01:45:41;;;;;;;14.07;6.25;;;;;;;24.86;100.00;96509.19;5063013;28;20090;-80
2023/08/13 01:48:08;;;;;;;8.80;6.63;;;;;;;25.00;100.00;96512.38;5055477;28;20474;-80
2023/08/13 01:50:33;;;;;;;9.35;5.97;;;;;;;25.14;100.00;96511.00;5050863;28;20115;-80
2023/08/13 01:52:59;;;;;;;7.57;6.63;;;;;;;24.98;100.00;96509.09;5051264;28;20051;-81
2023/08/13 01:55:24;;;;;;;7.78;5.85;;;;;;;24.89;100.00;96505.22;5054403;28;20050;-80
2023/08/13 01:57:50;;;;;;;9.30;5.32;;;;;;;25.00;100.00;96495.41;5064980;28;20078;-80
2023/08/13 02:00:16;;;;;;;10.63;6.47;;;;;;;24.99;100.00;96501.88;5070044;28;20176;-80
2023/08/13 02:02:42;;;;;;;8.88;5.40;;;;;;;24.94;100.00;96500.69;5069527;28;20062;-81
2023/08/13 02:05:07;;;;;;;7.72;5.53;;;;;;;24.86;100.00;96500.31;5059105;28;20319;-80
2023/08/13 02:07:33;;;;;;;7.82;5.55;;;;;;;24.76;100.00;96498.25;5054401;28;20371;-81
2023/08/13 02:09:59;;;;;;;11.32;5.88;;;;;;;24.81;100.00;96500.22;5054306;28;20394;-81
2023/08/13 02:12:52;;;;;;;8.63;5.72;;;;;;;24.65;100.00;96496.47;5054371;28;20029;-81
2023/08/13 02:15:17;;;;;;;8.75;5.68;;;;;;;24.83;100.00;96506.16;5048998;28;20028;-81
2023/08/13 02:17:44;;;;;;;7.40;5.35;;;;;;;24.76;100.00;96509.00;5054369;28;20085;-81
2023/08/13 02:20:10;;;;;;;7.45;5.82;;;;;;;24.85;100.00;96501.38;5071762;28;20032;-81
2023/08/13 02:22:36;;;;;;;11.57;6.03;;;;;;;24.80;100.00;96503.97;5054047;28;20024;-80
2023/08/13 02:25:02;;;;;;;8.80;5.63;;;;;;;24.84;100.00;96505.09;5070882;28;20032;-80
2023/08/13 02:27:27;;;;;;;11.23;5.30;;;;;;;24.73;100.00;96497.94;5053988;28;20039;-80
2023/08/13 02:29:53;;;;;;;7.70;4.93;;;;;;;24.65;100.00;96499.16;5071793;28;20024;-80
2023/08/13 02:32:19;;;;;;;8.18;5.38;;;;;;;24.69;100.00;96482.28;5071311;28;20052;-80
2023/08/13 02:34:46;;;;;;;7.30;5.22;;;;;;;24.61;100.00;96485.34;5053974;28;20054;-81
2023/08/13 02:37:12;;;;;;;12.70;7.75;;;;;;;24.86;100.00;96482.28;5071011;28;20032;-80
2023/08/13 02:39:38;;;;;;;8.20;6.38;;;;;;;24.98;100.00;96490.28;5061495;28;20502;-81
2023/08/13 02:42:04;;;;;;;9.80;5.80;;;;;;;24.76;100.00;96489.38;5057506;28;20020;-80
2023/08/13 02:44:30;;;;;;;9.75;6.13;;;;;;;24.65;100.00;96486.50;5069003;28;20047;-80
2023/08/13 02:46:56;;;;;;;7.45;5.18;;;;;;;24.70;100.00;96491.97;5056650;28;20021;-80
2023/08/13 02:49:22;;;;;;;9.90;5.05;;;;;;;24.76;100.00;96492.06;5049887;28;20505;-80
2023/08/13 02:51:48;;;;;;;8.07;4.65;;;;;;;24.57;100.00;96494.94;5054168;28;20028;-81
2023/08/13 02:54:14;;;;;;;6.97;4.97;;;;;;;24.43;100.00;96497.13;5057422;28;20439;-79
2023/08/13 02:56:41;;;;;;;9.35;5.45;;;;;;;24.76;100.00;96494.75;5068402;28;20085;-80
2023/08/13 02:59:07;;;;;;;9.30;6.00;;;;;;;24.97;100.00;96493.22;5068764;28;20017;-80
2023/08/13 03:01:33;;;;;;;15.30;10.57;;;;;;;24.90;100.00;96496.06;5071786;28;20055;-80
2023/08/13 03:04:02;;;;;;;11.70;6.53;;;;;;;24.68;100.00;96491.41;5057415;28;20047;-80
2023/08/13 03:06:29;;;;;;;8.20;5.45;;;;;;;24.82;100.00;96481.16;5054494;28;20043;-80
2023/08/13 03:08:55;;;;;;;8.40;5.47;;;;;;;25.01;100.00;96479.03;5071907;28;20501;-81
2023/08/13 03:11:21;;;;;;;9.20;6.07;;;;;;;24.75;100.00;96480.50;5069347;28;20120;-80
2023/08/13 03:13:47;;;;;;;8.60;5.40;;;;;;;24.76;100.00;96475.94;5062631;28;20395;-81
2023/08/13 03:16:14;;;;;;;33.05;23.65;;;;;;;24.90;100.00;96477.22;5060488;28;20409;-80
2023/08/13 03:18:40;;;;;;;10.90;8.77;;;;;;;24.78;100.00;96463.88;5058802;28;20029;-80
2023/08/13 03:21:10;;;;;;;8.85;6.75;;;;;;;24.52;100.00;96464.50;5056345;28;20032;-80
2023/08/13 03:23:35;;;;;;;9.32;6.18;;;;;;;24.31;100.00;96480.22;5054712;28;20413;-81
2023/08/13 03:26:01;;;;;;;8.13;5.53;;;;;;;24.37;100.00;96478.44;5041410;28;20054;-81
2023/08/13 03:28:28;;;;;;;8.57;5.90;;;;;;;24.54;100.00;96462.34;5038957;28;20032;-80
2023/08/13 03:31:00;;;;;;;7.65;5.43;;;;;;;24.45;100.00;96478.09;5052755;28;20020;-80
2023/08/13 03:33:33;;;;;;;9.38;6.05;;;;;;;24.50;100.00;96485.41;5063616;28;20021;-80
2023/08/13 03:36:00;;;;;;;7.03;5.55;;;;;;;24.51;100.00;96485.16;5050440;28;20407;-81
2023/08/13 03:38:25;;;;;;;9.48;5.82;;;;;;;24.11;100.00;96480.66;5053412;28;20024;-80
2023/08/13 03:41:09;;;;;;;8.40;5.80;;;;;;;24.38;100.00;96474.66;5043525;28;20479;-80
2023/08/13 03:43:35;;;;;;;7.95;5.90;;;;;;;24.07;100.00;96473.28;5053876;28;20036;-80
2023/08/13 03:46:02;;;;;;;8.15;6.53;;;;;;;23.96;100.00;96473.09;5071107;28;20031;-80
2023/08/13 03:48:27;;;;;;;9.25;6.03;;;;;;;24.00;100.00;96468.03;5051305;28;20029;-80
2023/08/13 03:50:53;;;;;;;7.70;6.10;;;;;;;24.14;100.00;96477.44;5051972;28;20401;-80
2023/08/13 03:53:24;;;;;;;8.80;6.10;;;;;;;24.45;100.00;96475.41;5050550;28;20132;-80
2023/08/13 03:55:51;;;;;;;8.60;6.65;;;;;;;24.68;100.00;96477.97;5045685;28;20052;-80
2023/08/13 03:58:18;;;;;;;10.80;6.53;;;;;;;24.53;100.00;96475.00;5053677;28;20041;-80
2023/08/13 04:00:44;;;;;;;10.32;6.68;;;;;;;25.02;100.00;96464.53;5054795;28;20555;-80
2023/08/13 04:03:09;;;;;;;9.02;6.95;;;;;;;24.85;100.00;96477.97;5051589;28;20037;-80
2023/08/13 04:05:35;;;;;;;8.80;6.15;;;;;;;25.00;100.00;96480.09;5041312;28;20418;-80
2023/08/13 04:08:02;;;;;;;8.13;5.68;;;;;;;25.00;100.00;96479.28;5053507;28;20605;-80
2023/08/13 04:10:28;;;;;;;8.82;6.22;;;;;;;24.69;100.00;96481.47;5073687;28;20044;-80
2023/08/13 04:12:57;;;;;;;9.85;6.50;;;;;;;24.59;100.00;96484.78;5067240;28;20033;-80
2023/08/13 04:15:23;;;;;;;10.48;6.18;;;;;;;24.42;100.00;96476.69;5056118;28;20036;-80
2023/08/13 04:17:49;;;;;;;10.40;6.95;;;;;;;24.51;100.00;96470.91;5064554;28;20021;-81
2023/08/13 04:20:16;;;;;;;9.85;6.20;;;;;;;24.57;100.00;96475.31;5057190;28;20028;-80
2023/08/13 04:22:42;;;;;;;9.02;5.80;;;;;;;24.84;100.00;96481.72;5073636;28;20025;-80
2023/08/13 04:25:08;;;;;;;10.25;6.90;;;;;;;25.00;100.00;96487.34;5073553;28;20077;-80
2023/08/13 04:27:34;;;;;;;8.27;6.45;;;;;;;24.95;100.00;96490.78;5053277;28;20107;-81
2023/08/13 04:30:00;;;;;;;9.20;6.28;;;;;;;24.94;100.00;96494.50;5055048;28;20021;-81
2023/08/13 04:32:26;;;;;;;8.27;5.60;;;;;;;24.95;100.00;96490.78;5072937;28;21303;-81
2023/08/13 04:34:52;;;;;;;9.05;5.90;;;;;;;24.89;100.00;96483.69;5050495;28;20025;-81
2023/08/13 04:37:18;;;;;;;10.00;6.20;;;;;;;24.90;100.00;96490.69;5071654;28;20070;-81
2023/08/13 04:39:43;;;;;;;8.10;6.38;;;;;;;25.13;100.00;96481.69;5056246;28;20107;-80
2023/08/13 04:42:09;;;;;;;8.82;6.00;;;;;;;25.03;100.00;96487.69;5052710;28;20498;-80
2023/08/13 04:44:35;;;;;;;8.45;5.43;;;;;;;24.88;100.00;96490.94;5072801;28;20470;-81
2023/08/13 04:47:02;;;;;;;8.13;6.30;;;;;;;24.59;100.00;96476.72;5056342;28;20691;-82
2023/08/13 04:49:27;;;;;;;7.20;6.35;;;;;;;24.54;100.00;96479.31;5051830;28;20052;-80
2023/08/13 04:51:53;;;;;;;7.93;5.72;;;;;;;24.41;100.00;96479.59;5053335;28;20025;-81
2023/08/13 04:54:19;;;;;;;7.50;6.30;;;;;;;24.52;100.00;96478.75;5055587;28;20104;-81
2023/08/13 04:56:45;;;;;;;11.75;6.40;;;;;;;24.83;100.00;96473.91;5052416;28;20575;-80
2023/08/13 04:59:11;;;;;;;8.02;6.20;;;;;;;24.51;100.00;96478.97;5045278;28;20036;-80
2023/08/13 05:01:38;;;;;;;9.43;6.32;;;;;;;24.28;100.00;96474.47;5055540;28;20483;-80
2023/08/13 05:04:12;;;;;;;8.95;6.28;;;;;;;24.26;100.00;96477.44;5052285;28;20078;-81
2023/08/13 05:06:38;;;;;;;10.48;5.90;;;;;;;24.62;100.00;96478.94;5040673;28;20017;-80
2023/08/13 05:09:04;;;;;;;8.00;5.80;;;;;;;24.92;100.00;96488.59;5049657;28;20044;-80
2023/08/13 05:11:30;;;;;;;9.80;6.97;;;;;;;24.88;100.00;96479.34;5046768;28;20055;-81
2023/08/13 05:13:56;;;;;;;9.98;6.50;;;;;;;24.88;100.00;96484.72;5067666;28;20463;-81
2023/08/13 05:16:22;;;;;;;9.05;6.35;;;;;;;24.52;100.00;96492.19;5052260;28;20086;-80
2023/08/13 05:18:50;;;;;;;8.02;6.30;;;;;;;24.88;100.00;96495.47;5072124;28;20483;-80
2023/08/13 05:21:15;;;;;;;8.45;6.30;;;;;;;24.96;100.00;96480.84;5058502;28;20081;-80
2023/08/13 05:23:46;;;;;;;9.52;6.13;;;;;;;25.00;100.00;96463.94;5072021;28;20035;-81
2023/08/13 05:26:13;;;;;;;8.20;6.57;;;;;;;24.64;100.00;96455.28;5039929;28;20055;-80
2023/08/13 05:28:40;;;;;;;8.90;6.72;;;;;;;24.41;100.00;96468.84;5057131;28;20020;-80
2023/08/13 05:31:05;;;;;;;9.38;5.93;;;;;;;24.58;100.00;96472.41;5054494;28;20474;-80
2023/08/13 05:33:32;;;;;;;8.40;6.20;;;;;;;24.91;100.00;96473.47;5045928;28;20032;-80
2023/08/13 05:35:58;;;;;;;7.68;6.18;;;;;;;25.01;100.00;96464.75;5050021;28;20394;-81
2023/08/13 05:38:23;;;;;;;7.25;5.47;;;;;;;25.48;100.00;96475.97;5054698;28;20533;-80
2023/08/13 05:40:49;;;;;;;10.48;6.63;;;;;;;25.74;100.00;96479.03;5040485;28;20039;-80
2023/08/13 05:43:15;;;;;;;8.35;6.10;;;;;;;25.60;100.00;96470.50;5049995;28;20106;-80
2023/08/13 05:45:42;;;;;;;7.57;5.78;;;;;;;25.40;100.00;96479.94;5071676;28;20031;-81
2023/08/13 05:48:07;;;;;;;7.85;6.00;;;;;;;25.62;100.00;96474.59;5041094;28;20017;-80
2023/08/13 05:50:33;;;;;;;7.22;5.75;;;;;;;25.80;100.00;96472.69;5070512;28;20029;-80
2023/08/13 05:52:59;;;;;;;10.02;5.68;;;;;;;26.26;100.00;96478.63;5061076;28;20031;-81
2023/08/13 05:55:24;;;;;;;6.90;5.22;;;;;;;26.28;100.00;96488.06;5054824;28;20025;-81
2023/08/13 05:57:50;;;;;;;7.85;5.10;;;;;;;26.45;100.00;96489.88;5070307;28;20031;-81
2023/08/13 06:00:16;;;;;;;6.72;5.65;;;;;;;26.49;100.00;96494.56;5053055;28;20127;-81
2023/08/13 06:02:42;;;;;;;6.28;5.20;;;;;;;26.45;100.00;96490.69;5054238;28;20062;-81
2023/08/13 06:05:08;;;;;;;9.15;5.15;;;;;;;26.46;100.00;96495.03;5050928;28;20090;-81
2023/08/13 06:07:34;;;;;;;7.38;5.20;;;;;;;26.20;100.00;96496.63;5063342;28;20149;-81
2023/08/13 06:10:01;;;;;;;10.60;5.90;;;;;;;26.18;100.00;96500.63;5053901;28;20069;-81
2023/08/13 06:12:26;;;;;;;7.88;6.07;;;;;;;26.09;100.00;96500.28;5047861;28;20029;-81
2023/08/13 06:14:52;;;;;;;8.85;5.85;;;;;;;26.13;100.00;96506.78;5069106;28;20450;-81
2023/08/13 06:17:17;;;;;;;7.22;5.78;;;;;;;26.06;100.00;96500.78;5051297;28;20029;-81
2023/08/13 06:19:43;;;;;;;8.93;5.70;;;;;;;26.28;100.00;96506.94;5071315;28;20031;-81
2023/08/13 06:22:09;;;;;;;8.50;5.43;;;;;;;26.16;100.00;96505.47;5065249;28;20312;-81
2023/08/13 06:24:35;;;;;;;9.38;6.22;;;;;;;25.80;100.00;96502.31;5052800;28;20024;-81
2023/08/13 06:27:17;;;;;;;8.43;6.20;;;;;;;25.62;100.00;96504.22;5057966;28;20043;-80
2023/08/13 06:29:43;;;;;;;10.55;6.60;;;;;;;25.56;100.00;96502.50;5070548;28;20021;-80
2023/08/13 06:32:09;;;;;;;10.45;6.60;;;;;;;25.59;100.00;96502.03;5061692;28;20032;-80
2023/08/13 06:34:34;;;;;;;10.20;7.22;;;;;;;25.46;100.00;96502.38;5047073;28;20082;-80
2023/08/13 06:37:00;;;;;;;8.40;6.65;;;;;;;25.77;100.00;96498.22;5055740;28;20558;-79
2023/08/13 06:39:38;;;;;;;8.80;6.65;;;;;;;25.74;100.00;96501.41;5054230;28;20047;-80
2023/08/13 06:42:04;;;;;;;10.38;7.03;;;;;;;25.93;100.00;96498.44;5049863;28;20017;-80
2023/08/13 06:44:31;;;;;;;8.73;6.93;;;;;;;26.27;100.00;96501.81;5046503;28;20021;-81
2023/08/13 06:46:56;;;;;;;9.00;6.53;;;;;;;26.36;100.00;96505.72;5054596;28;20059;-80
2023/08/13 06:49:27;;;;;;;8.00;6.70;;;;;;;26.38;100.00;96510.84;5070515;28;20032;-81
2023/08/13 06:51:53;;;;;;;8.10;6.53;;;;;;;26.14;100.00;96500.31;5065940;28;20044;-80
2023/08/13 06:54:19;;;;;;;8.68;5.50;;;;;;;25.78;100.00;96501.72;5045140;28;20036;-80
2023/08/13 06:56:45;;;;;;;8.50;4.90;;;;;;;26.14;100.00;96496.81;5053731;28;20017;-80
2023/08/13 06:59:11;;;;;;;9.50;6.32;;;;;;;26.04;100.00;96498.31;5053889;28;20047;-80
2023/08/13 07:01:38;;;;;;;8.13;6.07;;;;;;;26.19;100.00;96488.78;5065888;28;20054;-80
2023/08/13 07:04:06;;;;;;;8.73;6.72;;;;;;;26.29;100.00;96489.72;5040869;28;20610;-81
2023/08/13 07:06:35;;;;;;;11.65;6.22;;;;;;;26.18;100.00;96481.75;5075740;28;20024;-81
2023/08/13 07:09:03;;;;;;;7.50;6.20;;;;;;;26.16;100.00;96494.69;5050353;28;20025;-80
2023/08/13 07:11:29;;;;;;;7.78;5.95;;;;;;;26.46;100.00;96505.81;5068320;28;20039;-81
2023/08/13 07:13:57;;;;;;;7.25;5.78;;;;;;;26.62;100.00;96514.88;5053782;28;20031;-80
2023/08/13 07:16:22;;;;;;;7.53;5.60;;;;;;;26.71;100.00;96507.97;5068720;28;20107;-80
2023/08/13 07:18:48;;;;;;;12.60;6.20;;;;;;;26.53;100.00;96506.47;5041820;28;20032;-80
2023/08/13 07:21:13;;;;;;;7.28;5.47;;;;;;;26.82;100.00;96508.88;5054772;28;20025;-81
2023/08/13 07:23:40;;;;;;;8.35;5.60;;;;;;;26.34;100.00;96508.63;5050461;28;20768;-81
2023/08/13 07:26:06;;;;;;;7.25;5.07;;;;;;;26.02;100.00;96522.03;5061916;28;20032;-80
2023/08/13 07:28:35;;;;;;;8.85;5.25;;;;;;;26.08;100.00;96523.69;5068237;28;20451;-81
2023/08/13 07:31:04;;;;;;;7.22;5.47;;;;;;;26.15;100.00;96530.78;5050735;28;20454;-81
2023/08/13 07:33:31;;;;;;;9.43;5.22;;;;;;;26.27;100.00;96518.81;5066356;28;20024;-81
2023/08/13 07:36:00;;;;;;;10.63;5.65;;;;;;;26.34;100.00;96513.22;5055535;28;20372;-81
2023/08/13 07:38:27;;;;;;;10.07;6.00;;;;;;;26.53;100.00;96511.84;5057427;28;20049;-80
2023/08/13 07:40:55;;;;;;;10.95;6.25;;;;;;;26.28;100.00;96501.56;5056222;28;20033;-80
2023/08/13 07:43:21;;;;;;;8.27;5.28;;;;;;;26.09;100.00;96511.06;5058783;28;20150;-80
2023/08/13 07:45:46;;;;;;;8.98;6.00;;;;;;;26.20;100.00;96514.69;5071854;28;20062;-80
2023/08/13 07:48:12;;;;;;;10.27;5.75;;;;;;;26.74;100.00;96520.16;5057290;28;20029;-80
2023/08/13 07:50:37;;;;;;;7.72;5.38;;;;;;;26.86;100.00;96528.91;5059772;28;20036;-80
2023/08/13 07:53:04;;;;;;;10.15;5.82;;;;;;;26.83;100.00;96534.81;5053570;28;20024;-80
2023/08/13 07:55:30;;;;;;;11.25;5.95;;;;;;;26.90;100.00;96530.03;5069810;28;20112;-80
2023/08/13 07:57:55;;;;;;;12.38;6.07;;;;;;;26.99;100.00;96523.06;5046500;28;20553;-80
2023/08/13 08:00:43;;;;;;;7.43;5.22;;;;;;;27.17;100.00;96521.09;5070331;28;20055;-80
2023/08/13 08:03:08;;;;;;;9.27;6.47;;;;;;;27.03;100.00;96518.81;5065177;28;20029;-80
2023/08/13 08:05:35;;;;;;;10.48;7.68;;;;;;;26.89;100.00;96514.88;5070311;28;20028;-80
2023/08/13 08:08:01;;;;;;;72.35;12.35;;;;;;;26.44;100.00;96518.72;5056220;28;20027;-81
2023/08/13 08:10:28;;;;;;;69.03;11.15;;;;;;;26.55;100.00;96515.09;5056013;28;20021;-81
2023/08/13 08:12:56;;;;;;;43.03;9.15;;;;;;;26.62;100.00;96514.06;5056508;28;20027;-81
2023/08/13 08:15:49;;;;;;;10.43;8.45;;;;;;;26.90;100.00;96521.91;5057014;28;20555;-80
2023/08/13 08:18:15;;;;;;;;;;;;;;;26.98;100.00;96513.34;5073948;28;20036;-81
2023/08/13 08:20:57;;;;;;;9.23;7.82;;;;;;;26.97;100.00;96521.72;5056572;28;19916;-82
2023/08/13 08:23:23;;;;;;;8.35;7.45;;;;;;;27.11;100.00;96525.59;5052777;28;20457;-82
2023/08/13 08:25:48;;;;;;;10.30;7.32;;;;;;;27.14;100.00;96521.63;5056807;28;20051;-83
2023/08/13 08:28:23;;;;;;;12.25;8.88;;;;;;;26.83;100.00;96520.47;5071163;28;20107;-88
2023/08/13 08:30:49;;;;;;;9.20;8.18;;;;;;;27.03;100.00;96521.50;5068182;28;20382;-82
2023/08/13 08:33:15;;;;;;;10.00;8.00;;;;;;;27.11;100.00;96519.41;5039667;28;20120;-81
2023/08/13 08:35:51;;;;;;;9.55;7.55;;;;;;;27.15;100.00;96517.84;5066793;28;20024;-82
2023/08/13 08:38:17;;;;;;;8.60;6.57;;;;;;;26.89;100.00;96522.97;5067657;28;20104;-81
2023/08/13 08:40:45;;;;;;;6.95;5.63;;;;;;;26.99;100.00;96519.56;5056705;28;20543;-82
2023/08/13 08:43:12;;;;;;;8.30;5.55;;;;;;;26.60;100.00;96508.94;5072379;28;20064;-83
2023/08/13 08:45:38;;;;;;;7.00;5.53;;;;;;;26.68;100.00;96504.97;5056498;28;20025;-83
2023/08/13 08:48:06;;;;;;;7.20;5.70;;;;;;;26.78;100.00;96502.38;5055800;28;20019;-82
2023/08/13 08:50:37;;;;;;;9.85;7.05;;;;;;;26.98;100.00;96497.16;5067209;28;20035;-82
2023/08/13 08:53:04;;;;;;;9.85;6.32;;;;;;;26.55;100.00;96490.81;5055667;28;20483;-82
2023/08/13 08:55:46;;;;;;;8.60;6.63;;;;;;;27.04;100.00;96485.34;5056477;28;20032;-83
2023/08/13 08:58:11;;;;;;;11.52;8.15;;;;;;;27.16;100.00;96498.69;5052568;28;20036;-82
2023/08/13 09:00:37;;;;;;;8.57;7.60;;;;;;;26.97;100.00;96487.44;5064207;28;20024;-82
2023/08/13 09:03:03;;;;;;;8.60;7.57;;;;;;;26.78;100.00;96480.78;5063921;28;20013;-80
2023/08/13 09:05:29;;;;;;;8.95;7.57;;;;;;;26.75;100.00;96481.28;5067798;28;20033;-82
2023/08/13 09:07:57;;;;;;;9.23;7.30;;;;;;;26.28;100.00;96471.09;5066745;28;20031;-83
2023/08/13 09:10:23;;;;;;;10.48;7.60;;;;;;;27.12;100.00;96470.53;5074369;28;20024;-81
2023/08/13 09:12:52;;;;;;;7.75;6.35;;;;;;;26.89;100.00;96473.59;5072562;28;20032;-82
2023/08/13 09:15:19;;;;;;;8.63;6.85;;;;;;;28.34;100.00;96467.72;5051091;28;20079;-82
2023/08/13 09:17:46;;;;;;;8.70;6.55;;;;;;;29.64;100.00;96460.19;5052408;28;20025;-82
2023/08/13 09:20:19;;;;;;;7.43;5.40;;;;;;;30.17;100.00;96457.81;5071291;28;20043;-82
2023/08/13 09:22:50;;;;;;;19.70;15.63;;;;;;;30.45;100.00;96460.94;5053358;28;20513;-82
2023/08/13 09:25:17;;;;;;;7.88;5.43;;;;;;;30.54;100.00;96459.25;5055215;28;20025;-82
2023/08/13 09:27:43;;;;;;;6.78;4.60;;;;;;;30.86;100.00;96458.00;5052425;28;20630;-81
2023/08/13 09:30:20;;;;;;;7.53;5.18;;;;;;;30.28;100.00;96456.72;5063345;28;20103;-81
2023/08/13 09:32:46;;;;;;;7.97;4.60;;;;;;;31.34;100.00;96458.16;5052154;28;20031;-81
2023/08/13 09:35:12;;;;;;;6.35;4.20;;;;;;;30.30;100.00;96459.94;5047997;28;20020;-82
2023/08/13 09:37:38;;;;;;;4.97;3.40;;;;;;;31.01;100.00;96457.84;5047496;28;20479;-82
2023/08/13 09:40:05;;;;;;;8.20;4.93;;;;;;;31.49;100.00;96458.00;5049415;28;20111;-81
2023/08/13 09:42:33;;;;;;;6.65;3.50;;;;;;;30.87;100.00;96459.63;5052065;28;20025;-82
2023/08/13 09:45:02;;;;;;;6.43;4.10;;;;;;;31.27;100.00;96468.50;5054360;28;20048;-82
2023/08/13 09:47:29;;;;;;;5.68;3.80;;;;;;;31.57;100.00;96457.38;5063949;28;20518;-81
2023/08/13 09:49:57;;;;;;;5.40;3.58;;;;;;;29.76;100.00;96458.00;5056284;28;20024;-82
2023/08/13 09:52:26;;;;;;;6.85;4.25;;;;;;;30.46;100.00;96452.53;5037227;28;20487;-82
2023/08/13 09:54:54;;;;;;;9.70;3.78;;;;;;;30.98;100.00;96453.00;5067962;28;20060;-82
2023/08/13 09:57:22;;;;;;;6.20;3.80;;;;;;;32.68;100.00;96452.75;5063919;28;20394;-81
2023/08/13 09:59:49;;;;;;;6.18;3.65;;;;;;;33.09;100.00;96453.72;5053699;28;20035;-82
2023/08/13 10:02:18;;;;;;;6.88;3.35;;;;;;;32.00;100.00;96451.22;5042828;28;20037;-81
2023/08/13 10:04:44;;;;;;;5.80;2.95;;;;;;;32.08;100.00;96445.09;5071408;28;20398;-81
2023/08/13 10:07:10;;;;;;;7.72;3.33;;;;;;;31.43;100.00;96446.38;5055657;28;20044;-82
2023/08/13 10:09:37;;;;;;;7.88;3.70;;;;;;;30.77;100.00;96441.50;5054751;28;20170;-81
2023/08/13 10:12:05;;;;;;;10.00;4.07;;;;;;;31.36;100.00;96440.47;5037652;28;20123;-81
2023/08/13 10:14:32;;;;;;;4.90;2.90;;;;;;;31.56;100.00;96436.72;5034810;28;20052;-81
2023/08/13 10:17:02;;;;;;;8.98;3.78;;;;;;;32.87;100.00;96439.91;5062273;28;20131;-81
2023/08/13 10:19:49;;;;;;;5.13;3.22;;;;;;;33.16;100.00;96431.53;5065758;28;20030;-81
2023/08/13 10:22:38;;;;;;;6.63;2.92;;;;;;;33.24;100.00;96432.78;5071482;28;20104;-81
2023/08/13 10:25:27;;;;;;;7.03;3.38;;;;;;;33.04;100.00;96423.84;5070938;28;20020;-81
2023/08/13 10:27:54;;;;;;;5.93;3.65;;;;;;;32.62;100.00;96422.03;5054894;28;20059;-84
2023/08/13 10:30:23;;;;;;;10.73;4.18;;;;;;;34.24;100.00;96420.22;5071313;28;20020;-81
2023/08/13 10:33:00;;;;;;;10.18;6.15;;;;;;;35.40;100.00;96414.97;5054874;28;20020;-82
2023/08/13 10:35:25;;;;;;;5.43;3.40;;;;;;;35.10;100.00;96422.03;5053706;28;20070;-83
2023/08/13 10:37:55;;;;;;;6.07;3.67;;;;;;;34.10;100.00;96424.88;5071491;28;20028;-82
2023/08/13 10:40:24;;;;;;;5.53;3.22;;;;;;;35.46;100.00;96417.56;5072153;28;20020;-82
2023/08/13 10:42:54;;;;;;;4.95;3.15;;;;;;;35.06;100.00;96417.50;5072575;28;20501;-82
2023/08/13 10:45:22;;;;;;;6.47;3.00;;;;;;;34.46;100.00;96419.41;5046063;28;20027;-83
2023/08/13 10:47:55;;;;;;;5.05;3.08;;;;;;;34.39;100.00;96416.31;5069829;28;20028;-82
2023/08/13 10:50:30;;;;;;;5.72;3.05;;;;;;;33.78;100.00;96417.59;5053254;28;20012;-84
2023/08/13 10:53:09;;;;;;;6.03;2.83;;;;;;;33.07;100.00;96415.09;5051639;28;20048;-82
2023/08/13 10:55:40;;;;;;;4.82;2.83;;;;;;;33.73;100.00;96412.25;5050875;28;20021;-82
2023/08/13 10:58:07;;;;;;;4.22;2.92;;;;;;;34.74;99.08;96402.94;5050777;28;20054;-80
2023/08/13 11:00:42;;;;;;;5.35;3.10;;;;;;;34.63;97.75;96402.41;5053772;28;20028;-81
2023/08/13 11:03:22;;;;;;;4.38;2.70;;;;;;;34.68;100.00;96401.50;5064593;28;20020;-81
2023/08/13 11:05:53;;;;;;;6.72;3.35;;;;;;;35.75;89.66;96403.38;5073782;28;20032;-82
2023/08/13 11:08:23;;;;;;;7.20;3.05;;;;;;;36.67;85.44;96397.91;5059650;28;20036;-82
2023/08/13 11:10:50;;;;;;;5.30;2.75;;;;;;;35.87;85.13;96398.91;5071532;28;20379;-82
2023/08/13 11:13:17;;;;;;;5.97;2.72;;;;;;;35.69;88.95;96397.25;5055663;28;20547;-83
2023/08/13 11:15:53;;;;;;;4.80;2.50;;;;;;;35.80;83.67;96397.75;5041891;28;20032;-83
2023/08/13 11:18:20;;;;;;;5.18;2.75;;;;;;;35.24;85.67;96400.06;5075324;28;20021;-83
2023/08/13 11:20:47;;;;;;;5.25;2.63;;;;;;;35.23;82.68;96392.19;5058388;28;20104;-83
2023/08/13 11:23:13;;;;;;;5.45;2.90;;;;;;;36.37;83.06;96388.72;5075145;28;20032;-84
2023/08/13 11:25:39;;;;;;;5.30;2.63;;;;;;;36.49;74.06;96395.19;5058322;28;20060;-84
2023/08/13 11:28:06;;;;;;;4.57;2.80;;;;;;;36.38;70.66;96387.56;5040954;28;20031;-86